Time;durP1;ratioP1;P1;durP2;ratioP2;P2;SDS_P1;SDS_P2;PMS_P1;PMS_P2;Temp;Humidity;BMP_temperature;BMP_pressure;BME280_temperature;BME280_humidity;BME280_pressure;Samples;Min_cycle;Max_cycle;Signal;HPM_P1;HPM_P2
2022/04/05 00:00:06;;;;;;;5.30;2.50;;;;;;;18.35;44.41;99963.94;5032174;28;20422;-62
2022/04/05 00:02:32;;;;;;;7.73;2.50;;;;;;;18.32;45.12;99970.44;5031939;28;20207;-62
2022/04/05 00:04:58;;;;;;;7.07;2.70;;;;;;;18.29;44.80;99954.03;5031226;28;20408;-62
2022/04/05 00:07:24;;;;;;;5.50;2.27;;;;;;;18.43;44.84;99956.28;5032148;28;20513;-62
2022/04/05 00:09:49;;;;;;;3.53;1.83;;;;;;;18.44;44.50;99958.75;5032101;28;20184;-62
2022/04/05 00:12:14;;;;;;;3.10;1.80;;;;;;;18.48;44.81;99953.91;5031742;28;20183;-62
2022/04/05 00:14:40;;;;;;;4.50;2.20;;;;;;;18.46;44.95;99950.59;5031958;28;20183;-62
2022/04/05 00:17:13;;;;;;;7.77;2.50;;;;;;;18.50;44.52;99950.66;5031450;28;20168;-62
2022/04/05 00:19:39;;;;;;;5.90;2.40;;;;;;;18.47;44.70;99952.25;5031657;28;20168;-62
2022/04/05 00:22:04;;;;;;;5.17;2.60;;;;;;;18.43;45.21;99947.72;5030986;28;20539;-62
2022/04/05 00:24:30;;;;;;;8.13;2.67;;;;;;;18.40;45.27;99949.31;5030099;28;20198;-62
2022/04/05 00:26:56;;;;;;;4.57;2.23;;;;;;;18.44;45.48;99943.63;5030898;28;20223;-62
2022/04/05 00:29:22;;;;;;;4.47;2.07;;;;;;;18.48;45.53;99933.91;5031687;28;20191;-62
2022/04/05 00:31:49;;;;;;;4.07;2.03;;;;;;;18.45;45.69;99937.53;5032168;28;20451;-62
2022/04/05 00:34:14;;;;;;;6.50;2.40;;;;;;;18.42;45.65;99926.06;5032045;28;20666;-62
2022/04/05 00:36:40;;;;;;;4.30;2.17;;;;;;;18.44;45.70;99917.91;5031999;28;20411;-62
2022/04/05 00:39:05;;;;;;;3.03;1.87;;;;;;;18.43;45.94;99919.97;5030983;28;20717;-62
2022/04/05 00:41:30;;;;;;;3.60;2.07;;;;;;;18.45;45.78;99920.38;5031530;28;20184;-62
2022/04/05 00:43:56;;;;;;;5.10;2.70;;;;;;;18.42;46.05;99915.44;5031499;28;20172;-62
2022/04/05 00:46:21;;;;;;;3.10;1.70;;;;;;;18.43;46.41;99911.38;5031288;28;20690;-61
2022/04/05 00:48:49;;;;;;;5.00;1.83;;;;;;;18.44;46.29;99910.16;5031950;28;20220;-61
2022/04/05 00:51:15;;;;;;;7.10;2.17;;;;;;;18.43;46.22;99908.53;5031525;28;20192;-61
2022/04/05 00:53:46;;;;;;;6.63;2.53;;;;;;;18.36;46.50;99910.47;5014251;28;20853;-61
2022/04/05 00:56:13;;;;;;;5.13;2.33;;;;;;;18.41;46.35;99902.38;5013543;28;20430;-61
2022/04/05 00:58:38;;;;;;;3.53;2.00;;;;;;;18.36;46.12;99907.63;5013389;28;20419;-62
2022/04/05 01:01:04;;;;;;;5.60;1.93;;;;;;;18.40;46.61;99906.44;5013617;28;20428;-62
2022/04/05 01:03:29;;;;;;;5.30;2.30;;;;;;;18.40;46.25;99906.44;5012869;28;20177;-62
2022/04/05 01:05:55;;;;;;;6.23;2.17;;;;;;;18.40;46.27;99911.31;4997573;28;20230;-61
2022/04/05 01:08:20;;;;;;;6.17;1.83;;;;;;;18.42;46.42;99915.44;5031694;28;20690;-61
2022/04/05 01:10:46;;;;;;;8.63;2.00;;;;;;;18.33;46.38;99916.97;5031636;28;20616;-61
2022/04/05 01:13:11;;;;;;;5.43;2.23;;;;;;;18.37;46.25;99912.91;5031001;28;20637;-61
2022/04/05 01:15:37;;;;;;;2.63;1.50;;;;;;;18.42;46.73;99915.44;5031104;28;20168;-61
2022/04/05 01:18:03;;;;;;;3.23;1.80;;;;;;;18.39;46.58;99910.53;5030998;28;20192;-61
2022/04/05 01:20:28;;;;;;;3.40;1.80;;;;;;;18.33;46.87;99909.22;5030492;28;20199;-61
2022/04/05 01:22:54;;;;;;;3.80;2.20;;;;;;;18.29;47.17;99910.34;5031028;28;20168;-61
2022/04/05 01:25:19;;;;;;;5.63;2.30;;;;;;;18.30;46.78;99914.84;5031304;28;20169;-61
2022/04/05 01:27:45;;;;;;;3.10;1.83;;;;;;;18.29;47.14;99913.19;5031333;28;20251;-61
2022/04/05 01:30:11;;;;;;;3.23;1.40;;;;;;;18.30;47.13;99898.53;5031256;28;20611;-61
2022/04/05 01:32:37;;;;;;;3.23;1.70;;;;;;;18.34;47.16;99902.28;5031871;28;20251;-61
2022/04/05 01:35:04;;;;;;;3.70;2.07;;;;;;;18.35;47.19;99905.94;5035345;28;20575;-61
2022/04/05 01:37:30;;;;;;;4.10;1.80;;;;;;;18.38;47.07;99908.88;5034688;28;20415;-61
2022/04/05 01:39:55;;;;;;;3.57;2.10;;;;;;;18.39;47.47;99904.81;5035132;28;20506;-61
2022/04/05 01:42:21;;;;;;;4.43;1.93;;;;;;;18.43;46.89;99901.97;5028591;28;20517;-61
2022/04/05 01:44:46;;;;;;;3.50;1.90;;;;;;;18.41;46.81;99896.66;5015504;28;20169;-61
2022/04/05 01:47:13;;;;;;;5.17;2.33;;;;;;;18.41;47.05;99895.84;5015432;28;20252;-61
2022/04/05 01:49:39;;;;;;;4.03;1.60;;;;;;;18.40;47.25;99894.19;5015178;28;20640;-61
2022/04/05 01:52:05;;;;;;;4.17;1.73;;;;;;;18.42;47.53;99892.56;5025467;28;20419;-61
2022/04/05 01:54:31;;;;;;;5.20;1.93;;;;;;;18.42;47.17;99886.06;5034541;28;20419;-61
2022/04/05 01:56:56;;;;;;;4.37;1.93;;;;;;;18.40;46.93;99877.84;5034149;28;20434;-61
2022/04/05 01:59:26;;;;;;;3.07;1.90;;;;;;;18.42;47.11;99878.28;5016598;28;20636;-62
2022/04/05 02:01:52;;;;;;;4.50;2.00;;;;;;;18.38;47.26;99883.16;5017501;28;20182;-61
2022/04/05 02:04:18;;;;;;;3.13;1.73;;;;;;;18.44;46.99;99884.44;5035091;28;20422;-61
2022/04/05 02:06:43;;;;;;;3.30;1.70;;;;;;;18.40;47.05;99882.75;5016787;28;20861;-61
2022/04/05 02:09:10;;;;;;;3.40;1.70;;;;;;;18.39;47.90;99879.09;5034085;28;20267;-61
2022/04/05 02:11:36;;;;;;;2.93;1.63;;;;;;;18.38;47.29;99882.31;5034563;28;20176;-61
2022/04/05 02:14:01;;;;;;;3.13;1.70;;;;;;;18.36;47.36;99877.00;5033892;28;20422;-61
2022/04/05 02:16:26;;;;;;;3.07;1.70;;;;;;;18.30;47.29;99864.22;5034802;28;20165;-61
2022/04/05 02:18:53;;;;;;;3.10;1.73;;;;;;;18.40;47.50;99869.28;5034492;28;20168;-61
2022/04/05 02:21:18;;;;;;;2.83;1.43;;;;;;;18.40;47.15;99866.44;5034446;28;20632;-61
2022/04/05 02:23:43;;;;;;;3.43;1.70;;;;;;;18.37;47.75;99850.06;5034381;28;20411;-61
2022/04/05 02:26:10;;;;;;;3.60;1.90;;;;;;;18.41;47.26;99859.50;5034079;28;20199;-61
2022/04/05 02:28:35;;;;;;;4.00;1.77;;;;;;;18.43;47.42;99864.81;5016017;28;20173;-61
2022/04/05 02:31:01;;;;;;;3.70;1.83;;;;;;;18.42;47.60;99872.56;5034090;28;20407;-61
2022/04/05 02:33:26;;;;;;;2.83;1.40;;;;;;;18.39;47.64;99870.50;5034715;28;20164;-61
2022/04/05 02:35:52;;;;;;;3.07;1.73;;;;;;;18.39;47.55;99864.78;5034467;28;20230;-62
2022/04/05 02:38:18;;;;;;;2.60;1.40;;;;;;;18.41;47.47;99867.25;5033988;28;20173;-61
2022/04/05 02:40:43;;;;;;;3.30;1.70;;;;;;;18.44;47.48;99873.00;5034005;28;20434;-61
2022/04/05 02:43:09;;;;;;;2.63;1.30;;;;;;;18.45;47.58;99868.09;5034280;28;20184;-61
2022/04/05 02:45:34;;;;;;;4.43;1.77;;;;;;;18.42;47.55;99869.72;5032962;28;20279;-61
2022/04/05 02:48:00;;;;;;;3.60;1.50;;;;;;;18.41;47.44;99868.06;5032677;28;20255;-61
2022/04/05 02:50:26;;;;;;;2.80;1.53;;;;;;;18.38;47.75;99865.16;5033673;28;20173;-61
2022/04/05 02:52:52;;;;;;;2.40;1.30;;;;;;;18.38;47.67;99874.59;5034068;28;20230;-61
2022/04/05 02:55:18;;;;;;;4.10;2.00;;;;;;;18.42;47.55;99878.28;5033919;28;20415;-61
2022/04/05 02:57:44;;;;;;;3.27;2.00;;;;;;;18.34;47.97;99876.56;5032485;28;20426;-61
2022/04/05 03:00:13;;;;;;;3.80;1.87;;;;;;;18.35;47.58;99868.81;5015634;28;20172;-61
2022/04/05 03:02:39;;;;;;;2.33;1.80;;;;;;;18.37;47.50;99877.81;5033653;28;20419;-61
2022/04/05 03:05:06;;;;;;;3.03;1.47;;;;;;;18.38;47.75;99874.59;5015108;28;20828;-61
2022/04/05 03:07:34;;;;;;;2.90;1.63;;;;;;;18.36;48.00;99877.00;5031740;28;20208;-61
2022/04/05 03:10:03;;;;;;;2.37;1.40;;;;;;;18.36;47.86;99881.91;5033524;28;20454;-61
2022/04/05 03:12:29;;;;;;;4.73;1.67;;;;;;;18.34;47.82;99879.44;5034162;28;21052;-61
2022/04/05 03:14:55;;;;;;;4.47;1.30;;;;;;;18.40;48.19;99880.72;5033471;28;20419;-61
2022/04/05 03:17:20;;;;;;;5.70;1.97;;;;;;;18.39;47.94;99870.50;5033589;28;20183;-61
2022/04/05 03:19:46;;;;;;;2.77;1.60;;;;;;;18.40;47.83;99872.16;5033044;28;20173;-61
2022/04/05 03:22:11;;;;;;;2.40;1.40;;;;;;;18.45;47.68;99871.78;5033336;28;20628;-61
2022/04/05 03:24:37;;;;;;;2.77;1.77;;;;;;;18.47;47.56;99880.78;5015198;28;20176;-62
2022/04/05 03:27:03;;;;;;;2.67;1.30;;;;;;;18.44;47.81;99873.00;5033115;28;20240;-62
2022/04/05 03:29:29;;;;;;;3.03;1.47;;;;;;;18.48;47.40;99873.06;5033191;28;20168;-62
2022/04/05 03:31:54;;;;;;;2.97;1.60;;;;;;;18.45;47.85;99874.66;5033558;28;20200;-62
2022/04/05 03:34:20;;;;;;;2.07;1.30;;;;;;;18.45;47.86;99877.50;5033004;28;20176;-62
2022/04/05 03:36:45;;;;;;;2.80;1.40;;;;;;;18.38;47.94;99874.59;5033029;28;20926;-62
2022/04/05 03:39:13;;;;;;;4.20;1.50;;;;;;;18.44;48.07;99875.03;5032199;28;20183;-62
2022/04/05 03:41:39;;;;;;;3.40;1.40;;;;;;;18.43;48.27;99874.22;5033345;28;20172;-61
2022/04/05 03:44:05;;;;;;;2.00;1.20;;;;;;;18.44;48.02;99861.59;5032301;28;20430;-61
2022/04/05 03:46:30;;;;;;;2.70;1.60;;;;;;;18.43;48.13;99867.69;5032814;28;20628;-62
2022/04/05 03:48:55;;;;;;;3.00;1.33;;;;;;;18.47;47.94;99872.22;5033014;28;20757;-62
2022/04/05 03:51:21;;;;;;;5.80;1.80;;;;;;;18.46;47.51;99879.16;5032855;28;20175;-62
2022/04/05 03:53:46;;;;;;;4.27;1.83;;;;;;;18.44;47.68;99877.91;5032859;28;20176;-62
2022/04/05 03:56:12;;;;;;;2.80;1.50;;;;;;;18.45;47.92;99876.69;5032367;28;20264;-61
2022/04/05 03:58:37;;;;;;;4.20;1.70;;;;;;;18.46;47.61;99870.56;5014487;28;20302;-61
2022/04/05 04:01:03;;;;;;;3.50;1.87;;;;;;;18.40;47.91;99872.16;5032073;28;20272;-61
2022/04/05 04:03:28;;;;;;;6.17;1.87;;;;;;;18.43;47.88;99871.38;5032959;28;20181;-61
2022/04/05 04:05:54;;;;;;;1.90;1.10;;;;;;;18.43;47.78;99870.53;5032642;28;20204;-61
2022/04/05 04:08:19;;;;;;;2.97;1.57;;;;;;;18.41;47.71;99872.97;5014467;28;20181;-61
2022/04/05 04:10:48;;;;;;;4.00;1.70;;;;;;;18.43;48.02;99871.38;5031126;28;20276;-62
2022/04/05 04:13:14;;;;;;;2.30;1.27;;;;;;;18.45;48.21;99868.94;5032567;28;20586;-61
2022/04/05 04:15:39;;;;;;;2.77;1.50;;;;;;;18.45;48.00;99865.25;5031266;28;20458;-61
2022/04/05 04:18:05;;;;;;;2.50;1.33;;;;;;;18.45;48.22;99866.06;5032167;28;20235;-61
2022/04/05 04:20:30;;;;;;;2.50;1.50;;;;;;;18.44;48.61;99861.59;5032234;28;20212;-62
2022/04/05 04:22:55;;;;;;;2.53;1.30;;;;;;;18.45;47.99;99865.25;5032560;28;20393;-62
2022/04/05 04:25:21;;;;;;;2.03;1.40;;;;;;;18.45;48.21;99866.06;5031511;28;20661;-61
2022/04/05 04:27:46;;;;;;;2.90;1.30;;;;;;;18.42;48.04;99866.03;5030690;28;20242;-61
2022/04/05 04:30:12;;;;;;;3.40;1.90;;;;;;;18.45;47.92;99860.38;5032121;28;20173;-61
2022/04/05 04:32:37;;;;;;;4.17;1.70;;;;;;;18.50;47.60;99865.72;5031967;28;20172;-62
2022/04/05 04:35:03;;;;;;;2.90;1.50;;;;;;;18.41;48.14;99862.34;5030904;28;20631;-62
2022/04/05 04:37:28;;;;;;;3.00;1.90;;;;;;;18.38;48.15;99868.03;5032111;28;20172;-62
2022/04/05 04:39:54;;;;;;;3.00;1.87;;;;;;;18.36;48.11;99871.28;4997721;28;20679;-62
2022/04/05 04:42:19;;;;;;;2.90;1.60;;;;;;;18.44;48.27;99869.31;5032057;28;20247;-62
2022/04/05 04:44:45;;;;;;;3.17;1.40;;;;;;;18.47;48.15;99862.84;5031761;28;20628;-62
2022/04/05 04:47:10;;;;;;;2.77;1.30;;;;;;;18.37;48.44;99870.06;5012807;28;20203;-62
2022/04/05 04:49:36;;;;;;;2.13;1.20;;;;;;;18.41;48.68;99879.50;5029599;28;20168;-62
2022/04/05 04:52:02;;;;;;;3.07;1.30;;;;;;;18.44;47.93;99878.72;5030673;28;20228;-62
2022/04/05 04:54:28;;;;;;;4.17;1.50;;;;;;;18.40;48.16;99877.84;5030892;28;20176;-61
2022/04/05 04:56:53;;;;;;;3.40;1.50;;;;;;;18.47;48.21;99877.13;5032026;28;20419;-61
2022/04/05 04:59:19;;;;;;;2.43;1.47;;;;;;;18.46;48.19;99878.34;5014331;28;20160;-61
2022/04/05 05:01:44;;;;;;;2.67;1.50;;;;;;;18.45;48.11;99880.38;5032017;28;20188;-61
2022/04/05 05:04:10;;;;;;;2.10;1.33;;;;;;;18.45;48.13;99871.78;5031653;28;20256;-61
2022/04/05 05:06:35;;;;;;;2.67;1.40;;;;;;;18.47;48.47;99877.94;5030938;28;20254;-61
2022/04/05 05:09:01;;;;;;;3.03;1.30;;;;;;;18.44;48.31;99873.00;5031490;28;20643;-61
2022/04/05 05:11:26;;;;;;;2.67;1.30;;;;;;;18.48;47.99;99868.16;5030667;28;20180;-61
2022/04/05 05:13:52;;;;;;;3.03;1.60;;;;;;;18.51;48.14;99870.22;5031120;28;20434;-61
2022/04/05 05:16:17;;;;;;;2.40;1.20;;;;;;;18.48;48.19;99873.88;5031513;28;20161;-61
2022/04/05 05:18:43;;;;;;;2.93;1.30;;;;;;;18.43;48.52;99862.81;5030716;28;20177;-62
2022/04/05 05:21:08;;;;;;;3.07;1.50;;;;;;;18.48;47.96;99868.16;5030165;28;20248;-62
2022/04/05 05:23:34;;;;;;;2.07;1.10;;;;;;;18.41;48.39;99873.78;5031282;28;20168;-62
2022/04/05 05:25:59;;;;;;;2.60;1.20;;;;;;;18.43;48.34;99870.53;5031378;28;20195;-62
2022/04/05 05:28:24;;;;;;;2.10;1.13;;;;;;;18.43;48.50;99865.66;5031188;28;20180;-62
2022/04/05 05:30:50;;;;;;;2.60;1.50;;;;;;;18.44;48.22;99858.72;5030376;28;20172;-62
2022/04/05 05:33:15;;;;;;;2.63;1.30;;;;;;;18.45;48.17;99863.22;5031212;28;20195;-62
2022/04/05 05:35:42;;;;;;;3.60;1.77;;;;;;;18.51;48.19;99858.00;5030841;28;20183;-62
2022/04/05 05:38:11;;;;;;;2.60;1.40;;;;;;;18.50;48.35;99877.16;5031697;28;20556;-62
2022/04/05 05:40:36;;;;;;;2.97;1.50;;;;;;;18.43;48.42;99865.66;5011285;28;20554;-62
2022/04/05 05:43:03;;;;;;;2.87;1.47;;;;;;;18.44;48.56;99867.28;5014665;28;20498;-62
2022/04/05 05:45:29;;;;;;;3.53;1.80;;;;;;;18.40;48.44;99872.16;5013202;28;20354;-62
2022/04/05 05:47:55;;;;;;;2.90;1.40;;;;;;;18.44;48.29;99870.16;5030592;28;20471;-62
2022/04/05 05:50:21;;;;;;;1.87;1.10;;;;;;;18.44;48.18;99867.28;5030517;28;20445;-62
2022/04/05 05:52:46;;;;;;;2.57;1.20;;;;;;;18.44;48.32;99872.19;5031514;28;20187;-62
2022/04/05 05:55:13;;;;;;;4.50;1.27;;;;;;;18.40;48.40;99875.00;5031257;28;20164;-62
2022/04/05 05:57:38;;;;;;;3.00;1.60;;;;;;;18.22;48.49;99876.78;5027155;28;20204;-62
2022/04/05 06:00:06;;;;;;;7.03;3.83;;;;;;;17.96;47.06;99876.84;5028388;28;20459;-60
2022/04/05 06:02:35;;;;;;;11.93;4.77;;;;;;;17.91;45.69;99868.63;5029669;28;20173;-59
2022/04/05 06:05:00;;;;;;;9.77;6.33;;;;;;;17.95;44.25;99883.78;5027108;28;20485;-60
2022/04/05 06:07:26;;;;;;;9.83;6.13;;;;;;;18.12;44.44;99876.66;5028768;28;20887;-60
2022/04/05 06:09:51;;;;;;;12.63;5.77;;;;;;;18.40;43.88;99882.75;5027795;28;20718;-60
2022/04/05 06:12:17;;;;;;;14.60;5.10;;;;;;;18.59;43.92;99891.97;5029365;28;20184;-60
2022/04/05 06:14:42;;;;;;;7.10;4.83;;;;;;;18.62;44.04;99893.22;5028256;28;20267;-61
2022/04/05 06:17:08;;;;;;;8.97;4.80;;;;;;;18.73;43.31;99880.69;5029244;28;20188;-60
2022/04/05 06:19:33;;;;;;;7.17;4.37;;;;;;;19.09;43.41;99893.28;5029638;28;20184;-60
2022/04/05 06:21:58;;;;;;;7.07;4.27;;;;;;;19.11;44.04;99897.41;5032169;28;20177;-60
2022/04/05 06:24:24;;;;;;;9.83;3.90;;;;;;;19.11;44.19;99905.19;5031481;28;20191;-60
2022/04/05 06:26:49;;;;;;;9.80;4.13;;;;;;;19.25;44.71;99905.31;5032483;28;20295;-60
2022/04/05 06:29:15;;;;;;;6.03;3.87;;;;;;;19.29;45.27;99907.03;5032625;28;20180;-60
2022/04/05 06:31:40;;;;;;;5.60;3.20;;;;;;;19.11;45.13;99908.84;5031967;28;20184;-60
2022/04/05 06:34:06;;;;;;;7.70;4.00;;;;;;;19.04;46.13;99891.63;5032339;28;20242;-60
2022/04/05 06:36:31;;;;;;;8.20;3.97;;;;;;;18.99;46.88;99903.44;5033339;28;20181;-60
2022/04/05 06:38:57;;;;;;;8.13;4.20;;;;;;;19.09;47.27;99901.88;5031312;28;20268;-60
2022/04/05 06:41:22;;;;;;;6.37;3.60;;;;;;;18.98;47.27;99901.78;5031464;28;20639;-60
2022/04/05 06:43:47;;;;;;;5.87;2.80;;;;;;;19.08;47.52;99903.09;5031634;28;20169;-61
2022/04/05 06:46:15;;;;;;;10.47;3.40;;;;;;;19.08;47.45;99903.94;5031665;28;20205;-59
2022/04/05 06:48:40;;;;;;;6.50;3.47;;;;;;;19.04;47.32;99902.25;5031692;28;20219;-60
2022/04/05 06:51:06;;;;;;;6.53;3.47;;;;;;;18.90;47.83;99896.38;5032236;28;20569;-60
2022/04/05 06:53:32;;;;;;;7.70;3.60;;;;;;;18.82;47.47;99894.69;5032245;28;20678;-60
2022/04/05 06:55:58;;;;;;;9.87;3.43;;;;;;;18.86;45.95;99890.63;5031529;28;20519;-60
2022/04/05 06:58:24;;;;;;;7.40;3.83;;;;;;;18.78;45.43;99886.06;5031945;28;20823;-60
2022/04/05 07:00:49;;;;;;;6.10;3.70;;;;;;;18.63;46.27;99886.28;5029274;28;20438;-60
2022/04/05 07:03:15;;;;;;;9.57;4.40;;;;;;;18.61;46.95;99885.88;5031647;28;20651;-59
2022/04/05 07:05:40;;;;;;;8.50;4.20;;;;;;;18.57;47.08;99877.22;5031518;28;20183;-59
2022/04/05 07:08:06;;;;;;;14.40;4.07;;;;;;;18.55;47.66;99890.28;5015625;28;20203;-59
2022/04/05 07:10:31;;;;;;;5.93;3.03;;;;;;;18.58;48.25;99884.63;5033086;28;20180;-59
2022/04/05 07:12:57;;;;;;;13.03;3.67;;;;;;;18.48;47.71;99885.31;5033127;28;20176;-59
2022/04/05 07:15:22;;;;;;;10.60;3.30;;;;;;;18.54;48.08;99882.91;5032951;28;20181;-59
2022/04/05 07:17:48;;;;;;;6.63;3.23;;;;;;;18.53;48.14;99881.28;5031271;28;20169;-59
2022/04/05 07:20:13;;;;;;;11.00;3.47;;;;;;;18.50;48.44;99888.59;5033478;28;20188;-59
2022/04/05 07:22:47;;;;;;;11.17;3.47;;;;;;;18.46;48.63;99884.06;5033599;28;20180;-59
2022/04/05 07:25:12;;;;;;;4.77;2.80;;;;;;;18.47;48.47;99882.84;5016127;28;20543;-61
2022/04/05 07:27:38;;;;;;;7.13;3.30;;;;;;;18.51;48.70;99878.81;5033489;28;20466;-59
2022/04/05 07:30:03;;;;;;;8.17;2.90;;;;;;;18.51;48.67;99875.13;5033083;28;20177;-59
2022/04/05 07:32:38;;;;;;;8.50;2.50;;;;;;;18.55;48.61;99884.56;5033506;28;20275;-59
2022/04/05 07:35:03;;;;;;;9.63;3.27;;;;;;;18.56;48.65;99883.38;5032765;28;20195;-59
2022/04/05 07:37:30;;;;;;;5.93;2.73;;;;;;;18.63;48.63;99889.97;5032342;28;20446;-60
2022/04/05 07:39:58;;;;;;;7.00;2.50;;;;;;;18.70;48.50;99889.22;5032917;28;20279;-59
2022/04/05 07:42:24;;;;;;;8.70;2.90;;;;;;;18.71;48.46;99885.97;5033345;28;20423;-59
2022/04/05 07:44:49;;;;;;;6.20;2.83;;;;;;;18.68;48.43;99886.78;5033166;28;20463;-59
2022/04/05 07:47:15;;;;;;;9.60;2.47;;;;;;;18.71;48.55;99893.75;5032880;28;20694;-60
2022/04/05 07:49:40;;;;;;;8.97;3.37;;;;;;;18.69;48.43;99891.28;5033100;28;20164;-60
2022/04/05 07:52:06;;;;;;;5.20;2.97;;;;;;;18.67;48.75;99892.88;5032737;28;20176;-60
2022/04/05 07:54:32;;;;;;;8.40;3.00;;;;;;;18.58;48.92;99881.75;5031746;28;20184;-59
2022/04/05 07:56:58;;;;;;;7.17;2.60;;;;;;;18.61;48.92;99888.72;5032576;28;20165;-59
2022/04/05 07:59:23;;;;;;;6.80;2.63;;;;;;;18.55;49.01;99888.25;5033166;28;20787;-60
2022/04/05 08:01:49;;;;;;;7.23;2.50;;;;;;;18.52;48.88;99891.88;5032397;28;20423;-59
2022/04/05 08:04:14;;;;;;;4.90;2.30;;;;;;;18.50;49.08;99880.03;5022398;28;20215;-59
2022/04/05 08:06:40;;;;;;;7.57;2.53;;;;;;;18.45;49.43;99885.25;5032641;28;20238;-59
2022/04/05 08:09:05;;;;;;;5.73;2.33;;;;;;;18.49;49.24;99886.13;5032121;28;20183;-59
2022/04/05 08:11:34;;;;;;;8.47;2.63;;;;;;;18.43;49.36;99888.53;5032257;28;20192;-59
2022/04/05 08:14:00;;;;;;;6.73;2.80;;;;;;;18.42;49.35;99886.84;5032547;28;20188;-60
2022/04/05 08:16:25;;;;;;;5.80;2.50;;;;;;;18.42;49.23;99892.56;5031000;28;20887;-59
2022/04/05 08:18:50;;;;;;;8.73;2.97;;;;;;;18.39;49.29;99892.53;5032223;28;20177;-59
2022/04/05 08:21:18;;;;;;;5.80;2.30;;;;;;;18.39;49.45;99896.22;5032365;28;20177;-59
2022/04/05 08:23:43;;;;;;;9.13;2.60;;;;;;;18.35;49.87;99901.06;5014570;28;20259;-59
2022/04/05 08:26:08;;;;;;;7.73;2.83;;;;;;;18.34;49.75;99910.88;5032277;28;20459;-59
2022/04/05 08:28:34;;;;;;;4.30;2.30;;;;;;;18.30;49.61;99895.66;5032111;28;20184;-59
2022/04/05 08:31:00;;;;;;;5.30;2.63;;;;;;;18.29;50.06;99896.88;5031485;28;20180;-60
2022/04/05 08:33:26;;;;;;;7.20;3.27;;;;;;;18.30;49.95;99903.41;5031901;28;20639;-59
2022/04/05 08:35:51;;;;;;;11.33;2.87;;;;;;;18.28;49.72;99908.69;5032190;28;20200;-59
2022/04/05 08:38:17;;;;;;;5.13;2.50;;;;;;;18.27;50.00;99896.44;5032230;28;20449;-59
2022/04/05 08:40:42;;;;;;;4.80;2.23;;;;;;;18.28;49.94;99900.13;5032053;28;20176;-59
2022/04/05 08:43:08;;;;;;;6.83;2.90;;;;;;;18.35;49.69;99897.38;5030868;28;20180;-60
2022/04/05 08:45:34;;;;;;;9.40;2.70;;;;;;;18.34;49.86;99899.44;5031763;28;20282;-59
2022/04/05 08:48:00;;;;;;;5.60;2.30;;;;;;;18.34;49.65;99902.28;5013239;28;20228;-59
2022/04/05 08:50:29;;;;;;;7.10;2.60;;;;;;;18.32;49.55;99901.84;5031496;28;20873;-59
2022/04/05 08:52:56;;;;;;;5.10;2.50;;;;;;;18.36;49.56;99897.00;5013643;28;20655;-59
2022/04/05 08:55:22;;;;;;;4.60;2.67;;;;;;;18.42;49.85;99904.00;5031703;28;20446;-60
2022/04/05 08:57:47;;;;;;;6.17;2.70;;;;;;;18.41;49.64;99902.38;5031304;28;20415;-59
2022/04/05 09:00:14;;;;;;;5.57;2.23;;;;;;;18.39;49.63;99898.25;5014173;28;20203;-59
2022/04/05 09:02:51;;;;;;;5.00;2.17;;;;;;;18.43;49.68;99890.53;5031219;28;20203;-59
2022/04/05 09:05:37;;;;;;;5.73;2.83;;;;;;;18.43;50.00;99891.38;5015251;28;20414;-59
2022/04/05 09:08:15;;;;;;;5.60;2.40;;;;;;;18.42;49.70;99892.56;5031087;28;20414;-59
2022/04/05 09:10:45;;;;;;;5.20;2.80;;;;;;;18.43;49.70;99899.13;5011654;28;20416;-59
2022/04/05 09:13:11;;;;;;;6.47;2.57;;;;;;;18.41;49.82;99895.84;5011819;28;20446;-59
2022/04/05 09:15:37;;;;;;;6.53;3.23;;;;;;;18.46;49.59;99895.50;5011729;28;20463;-59
2022/04/05 09:18:03;;;;;;;7.97;2.87;;;;;;;18.38;50.19;99897.44;5027639;28;20807;-60
2022/04/05 09:20:28;;;;;;;4.20;2.33;;;;;;;18.40;49.90;99895.00;5030952;28;20263;-59
2022/04/05 09:22:54;;;;;;;3.93;2.00;;;;;;;18.39;50.01;99899.09;5031281;28;20180;-60
2022/04/05 09:25:20;;;;;;;6.10;2.30;;;;;;;18.37;50.26;99897.84;5031531;28;20202;-59
2022/04/05 09:27:46;;;;;;;6.50;2.67;;;;;;;18.35;49.88;99895.34;5030752;28;20207;-59
2022/04/05 09:30:13;;;;;;;4.20;2.23;;;;;;;18.30;50.19;99895.66;5031311;28;20187;-59
2022/04/05 09:32:43;;;;;;;4.43;2.40;;;;;;;18.28;49.83;99895.25;5030947;28;20430;-59
2022/04/05 09:35:09;;;;;;;4.67;2.27;;;;;;;18.29;50.15;99901.75;5031764;28;20400;-59
2022/04/05 09:37:38;;;;;;;5.87;2.60;;;;;;;18.28;50.10;99900.97;5031258;28;20403;-59
2022/04/05 09:40:32;;;;;;;5.70;2.20;;;;;;;18.23;50.35;99904.16;5030930;28;20196;-59
2022/04/05 09:43:08;;;;;;;4.37;2.30;;;;;;;18.21;50.47;99900.84;5030818;28;20466;-59
2022/04/05 09:45:58;;;;;;;4.87;2.37;;;;;;;18.23;50.22;99889.88;5030908;28;20531;-59
2022/04/05 09:48:25;;;;;;;6.37;2.63;;;;;;;18.19;50.43;99911.84;5031114;28;20466;-59
2022/04/05 09:51:01;;;;;;;7.67;2.27;;;;;;;18.20;50.23;99896.34;5030862;28;20411;-59
2022/04/05 09:53:30;;;;;;;4.00;2.40;;;;;;;18.22;50.10;99905.34;5032450;28;20523;-59
2022/04/05 09:56:05;;;;;;;6.70;2.90;;;;;;;18.21;50.30;99898.00;5034599;28;20430;-59
2022/04/05 09:58:31;;;;;;;5.37;2.60;;;;;;;18.21;50.67;99897.19;5034858;28;20421;-59
2022/04/05 10:01:08;;;;;;;7.83;2.77;;;;;;;18.27;50.22;99898.50;5016647;28;20508;-59
2022/04/05 10:03:43;;;;;;;5.90;2.53;;;;;;;18.24;49.97;99902.94;5034965;28;20411;-59
2022/04/05 10:06:09;;;;;;;5.37;2.97;;;;;;;18.25;50.34;99912.31;5034483;28;20500;-60
2022/04/05 10:08:35;;;;;;;8.00;2.73;;;;;;;18.33;50.19;99906.38;5034485;28;20427;-60
2022/04/05 10:11:01;;;;;;;4.17;2.40;;;;;;;18.29;50.12;99899.75;5034738;28;20697;-60
2022/04/05 10:13:29;;;;;;;7.13;3.23;;;;;;;18.32;49.81;99906.72;5016832;28;20415;-60
2022/04/05 10:16:00;;;;;;;4.87;2.70;;;;;;;18.31;50.35;99908.75;5034596;28;20184;-60
2022/04/05 10:18:33;;;;;;;5.60;2.60;;;;;;;18.37;50.01;99914.97;5017115;28;20449;-60
2022/04/05 10:20:59;;;;;;;6.07;2.50;;;;;;;18.39;49.96;99910.53;5017599;28;20503;-59
2022/04/05 10:23:24;;;;;;;5.43;2.00;;;;;;;18.35;50.00;99914.53;5016583;28;20417;-60
2022/04/05 10:25:51;;;;;;;4.20;2.40;;;;;;;18.36;49.92;99914.16;5034108;28;20172;-59
2022/04/05 10:28:18;;;;;;;4.23;2.30;;;;;;;18.42;49.77;99914.63;5024988;28;20185;-59
2022/04/05 10:30:48;;;;;;;8.07;3.20;;;;;;;18.36;50.16;99921.91;5013034;28;20428;-60
2022/04/05 10:33:33;;;;;;;10.50;2.40;;;;;;;18.34;50.43;99928.00;5014719;28;20567;-59
2022/04/05 10:36:00;;;;;;;8.80;2.73;;;;;;;18.28;50.49;99920.13;5013613;28;20424;-60
2022/04/05 10:38:27;;;;;;;4.70;2.10;;;;;;;18.28;50.40;99915.25;5016938;28;20801;-59
2022/04/05 10:41:11;;;;;;;5.83;2.73;;;;;;;18.28;50.25;99912.41;5034080;28;21126;-60
2022/04/05 10:43:38;;;;;;;6.63;2.90;;;;;;;18.28;50.22;99903.81;5032394;28;20408;-60
2022/04/05 10:46:05;;;;;;;4.90;2.53;;;;;;;18.27;50.10;99907.88;5034010;28;21034;-60
2022/04/05 10:48:31;;;;;;;6.53;2.20;;;;;;;18.27;50.08;99909.91;5033928;28;20463;-60
2022/04/05 10:51:00;;;;;;;4.67;2.53;;;;;;;18.24;50.50;99914.38;5033824;28;20465;-60
2022/04/05 10:53:34;;;;;;;6.10;2.73;;;;;;;18.28;50.05;99911.56;5033356;28;20437;-60
2022/04/05 10:56:02;;;;;;;5.47;2.30;;;;;;;18.25;50.14;99906.59;5033736;28;20419;-60
2022/04/05 10:58:34;;;;;;;7.77;3.20;;;;;;;18.23;50.55;99915.59;5034088;28;20422;-60
2022/04/05 11:01:20;;;;;;;7.67;2.93;;;;;;;18.24;50.39;99907.81;5033036;28;20415;-60
2022/04/05 11:04:17;;;;;;;4.23;2.20;;;;;;;18.22;50.42;99910.25;5033260;28;21051;-60
2022/04/05 11:06:58;;;;;;;6.80;2.73;;;;;;;18.22;50.37;99916.78;5032984;28;20447;-60
2022/04/05 11:09:27;;;;;;;6.10;2.50;;;;;;;18.21;50.87;99905.75;5033079;28;20434;-59
2022/04/05 11:11:53;;;;;;;5.23;2.40;;;;;;;18.21;50.10;99915.13;5032265;28;20514;-60
2022/04/05 11:14:38;;;;;;;5.50;2.40;;;;;;;18.20;50.59;99909.81;5032085;28;20542;-59
2022/04/05 11:17:06;;;;;;;4.73;2.40;;;;;;;18.20;50.44;99902.06;5033438;28;20171;-59
2022/04/05 11:19:33;;;;;;;4.83;2.60;;;;;;;18.19;50.80;99920.44;5033888;28;20415;-60
2022/04/05 11:22:23;;;;;;;4.03;2.10;;;;;;;18.19;50.73;99906.16;5033197;28;20434;-59
2022/04/05 11:24:52;;;;;;;8.13;3.10;;;;;;;18.17;50.45;99902.84;5018787;28;20535;-59
2022/04/05 11:27:48;;;;;;;6.53;2.27;;;;;;;18.18;50.52;99895.94;5033558;28;20451;-59
2022/04/05 11:30:23;;;;;;;5.83;2.50;;;;;;;18.22;50.66;99898.84;5033001;28;20506;-59
2022/04/05 11:33:09;;;;;;;4.93;2.43;;;;;;;18.18;50.67;99900.81;5033166;28;20508;-59